sensor_id;sensor_type;location;lat;lon;timestamp;P1;durP1;ratioP1;P2;durP2;ratioP2
77449;SDS011;66536;53.150;18.172;2023-03-14T01:31:28;6.70;;;2.10;;
77449;SDS011;66536;53.150;18.172;2023-03-14T01:41:56;5.10;;;2.00;;
77449;SDS011;66536;53.150;18.172;2023-03-14T01:49:04;3.80;;;1.90;;
77449;SDS011;66536;53.150;18.172;2023-03-14T01:52:17;2.90;;;1.50;;
77449;SDS011;66536;53.150;18.172;2023-03-14T01:55:25;4.10;;;1.70;;
77449;SDS011;66536;53.150;18.172;2023-03-14T01:58:51;4.00;;;1.80;;
77449;SDS011;66536;53.150;18.172;2023-03-14T02:02:44;4.50;;;2.00;;
77449;SDS011;66536;53.150;18.172;2023-03-14T02:20:38;3.00;;;1.80;;
77449;SDS011;66536;53.150;18.172;2023-03-14T02:34:33;4.50;;;1.40;;
77449;SDS011;66536;53.150;18.172;2023-03-14T02:37:41;5.00;;;1.70;;
77449;SDS011;66536;53.150;18.172;2023-03-14T02:41:00;2.30;;;1.30;;
77449;SDS011;66536;53.150;18.172;2023-03-14T02:44:30;2.90;;;1.40;;
77449;SDS011;66536;53.150;18.172;2023-03-14T02:47:26;2.20;;;1.30;;
77449;SDS011;66536;53.150;18.172;2023-03-14T02:50:08;2.60;;;1.40;;
77449;SDS011;66536;53.150;18.172;2023-03-14T02:53:43;3.30;;;1.60;;
77449;SDS011;66536;53.150;18.172;2023-03-14T02:56:51;3.10;;;1.10;;
77449;SDS011;66536;53.150;18.172;2023-03-14T03:00:16;2.90;;;1.20;;
77449;SDS011;66536;53.150;18.172;2023-03-14T03:03:01;2.10;;;1.20;;
77449;SDS011;66536;53.150;18.172;2023-03-14T03:09:26;2.10;;;1.10;;
77449;SDS011;66536;53.150;18.172;2023-03-14T03:13:18;1.50;;;0.70;;
77449;SDS011;66536;53.150;18.172;2023-03-14T03:16:02;1.70;;;0.90;;
77449;SDS011;66536;53.150;18.172;2023-03-14T03:23:23;1.50;;;0.90;;
77449;SDS011;66536;53.150;18.172;2023-03-14T03:26:43;1.90;;;0.90;;
77449;SDS011;66536;53.150;18.172;2023-03-14T03:29:39;2.80;;;1.10;;
77449;SDS011;66536;53.150;18.172;2023-03-14T03:37:48;2.30;;;1.00;;
77449;SDS011;66536;53.150;18.172;2023-03-14T03:44:18;2.50;;;1.00;;
77449;SDS011;66536;53.150;18.172;2023-03-14T03:46:51;2.90;;;1.20;;
77449;SDS011;66536;53.150;18.172;2023-03-14T03:49:47;2.40;;;0.80;;
77449;SDS011;66536;53.150;18.172;2023-03-14T03:53:57;2.40;;;0.90;;
77449;SDS011;66536;53.150;18.172;2023-03-14T04:02:07;1.90;;;1.10;;
77449;SDS011;66536;53.150;18.172;2023-03-14T04:06:27;2.30;;;1.00;;
77449;SDS011;66536;53.150;18.172;2023-03-14T04:14:54;1.50;;;0.90;;
77449;SDS011;66536;53.150;18.172;2023-03-14T04:29:36;2.60;;;1.40;;
77449;SDS011;66536;53.150;18.172;2023-03-14T04:32:02;2.60;;;1.40;;
77449;SDS011;66536;53.150;18.172;2023-03-14T04:34:29;3.10;;;1.30;;
77449;SDS011;66536;53.150;18.172;2023-03-14T04:37:17;1.80;;;1.00;;
77449;SDS011;66536;53.150;18.172;2023-03-14T04:39:51;3.40;;;1.10;;
77449;SDS011;66536;53.150;18.172;2023-03-14T04:42:26;2.30;;;1.10;;
77449;SDS011;66536;53.150;18.172;2023-03-14T04:44:55;2.30;;;1.10;;
77449;SDS011;66536;53.150;18.172;2023-03-14T04:47:30;3.70;;;1.30;;
77449;SDS011;66536;53.150;18.172;2023-03-14T04:50:02;2.70;;;1.30;;
77449;SDS011;66536;53.150;18.172;2023-03-14T04:52:35;2.10;;;1.20;;
77449;SDS011;66536;53.150;18.172;2023-03-14T04:55:05;1.80;;;1.10;;
77449;SDS011;66536;53.150;18.172;2023-03-14T04:57:35;1.60;;;1.20;;
77449;SDS011;66536;53.150;18.172;2023-03-14T05:00:11;2.90;;;1.10;;
77449;SDS011;66536;53.150;18.172;2023-03-14T05:02:48;3.40;;;1.50;;
77449;SDS011;66536;53.150;18.172;2023-03-14T05:05:25;2.00;;;1.30;;
77449;SDS011;66536;53.150;18.172;2023-03-14T05:08:04;3.50;;;1.40;;
77449;SDS011;66536;53.150;18.172;2023-03-14T05:10:41;2.90;;;1.50;;
77449;SDS011;66536;53.150;18.172;2023-03-14T05:13:34;3.80;;;1.70;;
77449;SDS011;66536;53.150;18.172;2023-03-14T05:16:20;3.20;;;2.20;;
77449;SDS011;66536;53.150;18.172;2023-03-14T05:19:00;3.70;;;2.40;;
77449;SDS011;66536;53.150;18.172;2023-03-14T05:21:41;3.70;;;2.70;;
77449;SDS011;66536;53.150;18.172;2023-03-14T05:24:27;4.20;;;2.50;;
77449;SDS011;66536;53.150;18.172;2023-03-14T05:27:05;3.00;;;2.10;;
77449;SDS011;66536;53.150;18.172;2023-03-14T05:29:42;3.60;;;1.70;;
77449;SDS011;66536;53.150;18.172;2023-03-14T05:32:28;4.10;;;1.70;;
77449;SDS011;66536;53.150;18.172;2023-03-14T05:35:07;4.60;;;2.00;;
77449;SDS011;66536;53.150;18.172;2023-03-14T05:37:57;3.30;;;2.00;;
77449;SDS011;66536;53.150;18.172;2023-03-14T05:40:50;2.90;;;2.30;;
77449;SDS011;66536;53.150;18.172;2023-03-14T05:43:35;5.10;;;2.80;;
77449;SDS011;66536;53.150;18.172;2023-03-14T05:46:18;11.70;;;5.30;;
77449;SDS011;66536;53.150;18.172;2023-03-14T05:48:55;4.50;;;2.60;;
77449;SDS011;66536;53.150;18.172;2023-03-14T05:51:32;6.20;;;2.70;;
77449;SDS011;66536;53.150;18.172;2023-03-14T05:54:10;6.20;;;3.10;;
77449;SDS011;66536;53.150;18.172;2023-03-14T05:56:48;4.60;;;2.60;;
77449;SDS011;66536;53.150;18.172;2023-03-14T05:59:39;4.30;;;2.40;;
77449;SDS011;66536;53.150;18.172;2023-03-14T06:02:26;11.40;;;9.20;;
77449;SDS011;66536;53.150;18.172;2023-03-14T06:05:01;6.10;;;3.20;;
77449;SDS011;66536;53.150;18.172;2023-03-14T06:07:47;6.60;;;3.00;;
77449;SDS011;66536;53.150;18.172;2023-03-14T06:10:17;28.50;;;14.80;;
77449;SDS011;66536;53.150;18.172;2023-03-14T06:12:44;22.40;;;12.90;;
77449;SDS011;66536;53.150;18.172;2023-03-14T06:15:11;9.30;;;5.70;;
77449;SDS011;66536;53.150;18.172;2023-03-14T06:17:44;6.10;;;3.30;;
77449;SDS011;66536;53.150;18.172;2023-03-14T06:20:12;4.70;;;3.20;;
77449;SDS011;66536;53.150;18.172;2023-03-14T06:22:41;13.00;;;5.80;;
77449;SDS011;66536;53.150;18.172;2023-03-14T06:25:12;11.80;;;6.00;;
77449;SDS011;66536;53.150;18.172;2023-03-14T06:27:43;6.60;;;4.40;;
77449;SDS011;66536;53.150;18.172;2023-03-14T06:30:11;6.70;;;3.60;;
77449;SDS011;66536;53.150;18.172;2023-03-14T06:32:38;6.00;;;3.70;;
77449;SDS011;66536;53.150;18.172;2023-03-14T06:35:12;4.80;;;2.60;;
77449;SDS011;66536;53.150;18.172;2023-03-14T06:37:40;5.40;;;3.40;;
77449;SDS011;66536;53.150;18.172;2023-03-14T06:40:11;4.80;;;3.60;;
77449;SDS011;66536;53.150;18.172;2023-03-14T06:42:56;7.40;;;3.50;;
77449;SDS011;66536;53.150;18.172;2023-03-14T06:45:24;6.60;;;3.20;;
77449;SDS011;66536;53.150;18.172;2023-03-14T06:47:52;7.70;;;3.50;;
77449;SDS011;66536;53.150;18.172;2023-03-14T06:50:20;5.30;;;3.00;;
77449;SDS011;66536;53.150;18.172;2023-03-14T06:52:48;4.30;;;2.60;;
77449;SDS011;66536;53.150;18.172;2023-03-14T06:55:19;6.50;;;3.80;;
77449;SDS011;66536;53.150;18.172;2023-03-14T06:57:46;5.40;;;3.00;;
77449;SDS011;66536;53.150;18.172;2023-03-14T07:00:12;9.60;;;4.10;;
77449;SDS011;66536;53.150;18.172;2023-03-14T07:02:39;11.10;;;5.00;;
77449;SDS011;66536;53.150;18.172;2023-03-14T07:05:09;7.80;;;3.70;;
77449;SDS011;66536;53.150;18.172;2023-03-14T07:07:36;9.90;;;4.00;;
77449;SDS011;66536;53.150;18.172;2023-03-14T07:10:02;8.40;;;4.30;;
77449;SDS011;66536;53.150;18.172;2023-03-14T07:12:28;8.00;;;3.50;;
77449;SDS011;66536;53.150;18.172;2023-03-14T07:14:54;6.60;;;3.70;;
77449;SDS011;66536;53.150;18.172;2023-03-14T07:17:21;13.70;;;6.70;;
77449;SDS011;66536;53.150;18.172;2023-03-14T07:19:49;12.80;;;8.20;;
77449;SDS011;66536;53.150;18.172;2023-03-14T07:22:15;10.10;;;6.30;;
77449;SDS011;66536;53.150;18.172;2023-03-14T07:24:42;7.30;;;3.60;;
77449;SDS011;66536;53.150;18.172;2023-03-14T07:27:08;6.40;;;3.90;;
77449;SDS011;66536;53.150;18.172;2023-03-14T07:29:34;6.70;;;3.60;;
77449;SDS011;66536;53.150;18.172;2023-03-14T07:32:10;6.50;;;4.00;;
77449;SDS011;66536;53.150;18.172;2023-03-14T07:34:43;5.40;;;3.00;;
77449;SDS011;66536;53.150;18.172;2023-03-14T07:37:10;8.20;;;3.70;;
77449;SDS011;66536;53.150;18.172;2023-03-14T07:39:36;9.90;;;5.00;;
77449;SDS011;66536;53.150;18.172;2023-03-14T07:42:07;10.10;;;5.00;;
77449;SDS011;66536;53.150;18.172;2023-03-14T07:44:54;10.10;;;4.80;;
77449;SDS011;66536;53.150;18.172;2023-03-14T07:47:26;6.50;;;4.00;;
77449;SDS011;66536;53.150;18.172;2023-03-14T07:49:52;7.40;;;3.90;;
77449;SDS011;66536;53.150;18.172;2023-03-14T07:52:18;7.80;;;3.30;;
77449;SDS011;66536;53.150;18.172;2023-03-14T07:54:44;7.10;;;3.80;;
77449;SDS011;66536;53.150;18.172;2023-03-14T07:57:10;17.40;;;8.10;;
77449;SDS011;66536;53.150;18.172;2023-03-14T07:59:36;10.90;;;6.10;;
77449;SDS011;66536;53.150;18.172;2023-03-14T08:02:02;12.80;;;6.90;;
77449;SDS011;66536;53.150;18.172;2023-03-14T08:04:32;11.40;;;6.00;;
77449;SDS011;66536;53.150;18.172;2023-03-14T08:06:58;14.70;;;9.10;;
77449;SDS011;66536;53.150;18.172;2023-03-14T08:09:27;7.70;;;4.60;;
77449;SDS011;66536;53.150;18.172;2023-03-14T08:11:53;9.10;;;4.50;;
77449;SDS011;66536;53.150;18.172;2023-03-14T08:14:19;8.60;;;4.60;;
77449;SDS011;66536;53.150;18.172;2023-03-14T08:16:45;9.80;;;4.50;;
77449;SDS011;66536;53.150;18.172;2023-03-14T08:19:11;5.90;;;3.70;;
77449;SDS011;66536;53.150;18.172;2023-03-14T08:21:37;7.50;;;3.40;;
77449;SDS011;66536;53.150;18.172;2023-03-14T08:24:03;7.30;;;3.80;;
77449;SDS011;66536;53.150;18.172;2023-03-14T08:26:29;7.40;;;3.90;;
77449;SDS011;66536;53.150;18.172;2023-03-14T08:28:55;5.40;;;3.60;;
77449;SDS011;66536;53.150;18.172;2023-03-14T08:31:21;8.20;;;3.50;;
77449;SDS011;66536;53.150;18.172;2023-03-14T08:33:47;4.40;;;3.20;;
77449;SDS011;66536;53.150;18.172;2023-03-14T08:36:31;5.40;;;3.20;;
77449;SDS011;66536;53.150;18.172;2023-03-14T08:38:58;4.80;;;3.30;;
77449;SDS011;66536;53.150;18.172;2023-03-14T08:41:25;9.30;;;5.10;;
77449;SDS011;66536;53.150;18.172;2023-03-14T08:43:51;6.80;;;3.40;;
77449;SDS011;66536;53.150;18.172;2023-03-14T08:46:20;6.40;;;3.10;;
77449;SDS011;66536;53.150;18.172;2023-03-14T08:48:45;9.80;;;3.90;;
77449;SDS011;66536;53.150;18.172;2023-03-14T08:51:12;5.60;;;3.30;;
77449;SDS011;66536;53.150;18.172;2023-03-14T08:53:43;6.40;;;4.30;;
77449;SDS011;66536;53.150;18.172;2023-03-14T08:56:09;5.60;;;3.60;;
77449;SDS011;66536;53.150;18.172;2023-03-14T08:58:36;8.30;;;3.20;;
77449;SDS011;66536;53.150;18.172;2023-03-14T09:01:05;4.70;;;2.80;;
77449;SDS011;66536;53.150;18.172;2023-03-14T09:03:31;4.10;;;2.90;;
77449;SDS011;66536;53.150;18.172;2023-03-14T09:06:01;8.30;;;2.40;;
77449;SDS011;66536;53.150;18.172;2023-03-14T09:08:30;5.40;;;2.50;;
77449;SDS011;66536;53.150;18.172;2023-03-14T09:10:57;5.80;;;2.70;;
77449;SDS011;66536;53.150;18.172;2023-03-14T09:13:23;3.60;;;2.50;;
77449;SDS011;66536;53.150;18.172;2023-03-14T09:15:53;4.30;;;2.10;;
77449;SDS011;66536;53.150;18.172;2023-03-14T09:18:22;3.50;;;2.20;;
77449;SDS011;66536;53.150;18.172;2023-03-14T09:20:48;4.00;;;2.20;;
77449;SDS011;66536;53.150;18.172;2023-03-14T09:23:15;6.30;;;3.70;;
77449;SDS011;66536;53.150;18.172;2023-03-14T09:25:41;4.60;;;2.50;;
77449;SDS011;66536;53.150;18.172;2023-03-14T09:28:07;7.20;;;3.90;;
77449;SDS011;66536;53.150;18.172;2023-03-14T09:30:33;7.70;;;3.10;;
77449;SDS011;66536;53.150;18.172;2023-03-14T09:32:59;6.00;;;3.30;;
77449;SDS011;66536;53.150;18.172;2023-03-14T09:35:25;6.10;;;3.60;;
77449;SDS011;66536;53.150;18.172;2023-03-14T09:37:51;7.60;;;4.30;;
77449;SDS011;66536;53.150;18.172;2023-03-14T09:40:18;12.40;;;6.80;;
77449;SDS011;66536;53.150;18.172;2023-03-14T09:42:47;6.70;;;3.80;;
77449;SDS011;66536;53.150;18.172;2023-03-14T09:45:21;8.70;;;3.50;;
77449;SDS011;66536;53.150;18.172;2023-03-14T09:47:53;5.00;;;2.90;;
77449;SDS011;66536;53.150;18.172;2023-03-14T09:50:20;4.30;;;3.20;;
77449;SDS011;66536;53.150;18.172;2023-03-14T09:52:48;5.50;;;3.30;;
77449;SDS011;66536;53.150;18.172;2023-03-14T09:55:18;6.70;;;2.10;;
77449;SDS011;66536;53.150;18.172;2023-03-14T09:57:49;3.70;;;1.90;;
77449;SDS011;66536;53.150;18.172;2023-03-14T10:00:22;5.00;;;2.60;;
77449;SDS011;66536;53.150;18.172;2023-03-14T10:05:57;4.50;;;2.00;;
77449;SDS011;66536;53.150;18.172;2023-03-14T10:08:23;3.60;;;2.40;;
77449;SDS011;66536;53.150;18.172;2023-03-14T10:10:50;5.10;;;2.40;;
77449;SDS011;66536;53.150;18.172;2023-03-14T10:13:19;6.20;;;2.70;;
77449;SDS011;66536;53.150;18.172;2023-03-14T10:15:51;4.70;;;2.60;;
77449;SDS011;66536;53.150;18.172;2023-03-14T10:18:22;3.80;;;2.70;;
77449;SDS011;66536;53.150;18.172;2023-03-14T10:20:52;4.10;;;2.20;;
77449;SDS011;66536;53.150;18.172;2023-03-14T10:23:30;4.30;;;2.30;;
77449;SDS011;66536;53.150;18.172;2023-03-14T10:26:03;6.30;;;5.70;;
77449;SDS011;66536;53.150;18.172;2023-03-14T10:28:33;3.60;;;2.00;;
77449;SDS011;66536;53.150;18.172;2023-03-14T10:31:04;5.50;;;2.10;;
77449;SDS011;66536;53.150;18.172;2023-03-14T10:33:34;5.60;;;2.80;;
77449;SDS011;66536;53.150;18.172;2023-03-14T10:36:05;6.90;;;3.40;;
77449;SDS011;66536;53.150;18.172;2023-03-14T10:38:43;5.90;;;2.00;;
77449;SDS011;66536;53.150;18.172;2023-03-14T10:41:18;7.10;;;2.10;;
77449;SDS011;66536;53.150;18.172;2023-03-14T10:43:50;7.70;;;4.60;;
77449;SDS011;66536;53.150;18.172;2023-03-14T10:46:19;5.80;;;1.80;;
77449;SDS011;66536;53.150;18.172;2023-03-14T10:48:56;5.20;;;1.60;;
77449;SDS011;66536;53.150;18.172;2023-03-14T10:51:24;3.60;;;1.60;;
77449;SDS011;66536;53.150;18.172;2023-03-14T10:53:56;2.30;;;1.30;;
77449;SDS011;66536;53.150;18.172;2023-03-14T10:56:26;8.20;;;2.10;;
77449;SDS011;66536;53.150;18.172;2023-03-14T10:58:54;7.70;;;1.70;;
77449;SDS011;66536;53.150;18.172;2023-03-14T11:07:03;6.30;;;2.80;;
77449;SDS011;66536;53.150;18.172;2023-03-14T11:09:46;4.50;;;2.00;;
77449;SDS011;66536;53.150;18.172;2023-03-14T11:12:41;4.30;;;2.00;;
77449;SDS011;66536;53.150;18.172;2023-03-14T11:23:55;6.00;;;2.40;;
77449;SDS011;66536;53.150;18.172;2023-03-14T11:26:48;6.20;;;2.50;;
77449;SDS011;66536;53.150;18.172;2023-03-14T11:29:23;13.10;;;4.40;;
77449;SDS011;66536;53.150;18.172;2023-03-14T11:31:59;9.00;;;3.40;;
77449;SDS011;66536;53.150;18.172;2023-03-14T11:37:22;8.10;;;2.80;;
77449;SDS011;66536;53.150;18.172;2023-03-14T11:39:56;7.90;;;2.60;;
77449;SDS011;66536;53.150;18.172;2023-03-14T11:42:35;6.50;;;2.60;;
77449;SDS011;66536;53.150;18.172;2023-03-14T11:45:02;7.60;;;2.90;;
77449;SDS011;66536;53.150;18.172;2023-03-14T11:47:34;3.90;;;1.80;;
77449;SDS011;66536;53.150;18.172;2023-03-14T11:50:15;8.40;;;3.30;;
77449;SDS011;66536;53.150;18.172;2023-03-14T11:52:48;12.30;;;6.80;;
77449;SDS011;66536;53.150;18.172;2023-03-14T11:55:24;12.90;;;5.90;;
77449;SDS011;66536;53.150;18.172;2023-03-14T11:58:03;10.50;;;2.90;;
77449;SDS011;66536;53.150;18.172;2023-03-14T12:00:38;5.30;;;2.30;;
77449;SDS011;66536;53.150;18.172;2023-03-14T12:03:11;5.40;;;2.40;;
77449;SDS011;66536;53.150;18.172;2023-03-14T12:05:56;6.00;;;2.60;;
77449;SDS011;66536;53.150;18.172;2023-03-14T12:08:45;6.50;;;2.20;;
77449;SDS011;66536;53.150;18.172;2023-03-14T12:11:20;3.10;;;1.60;;
77449;SDS011;66536;53.150;18.172;2023-03-14T12:13:51;5.20;;;1.70;;
77449;SDS011;66536;53.150;18.172;2023-03-14T12:19:14;3.10;;;1.50;;
77449;SDS011;66536;53.150;18.172;2023-03-14T12:21:55;7.20;;;2.60;;
77449;SDS011;66536;53.150;18.172;2023-03-14T12:24:33;9.20;;;3.40;;
77449;SDS011;66536;53.150;18.172;2023-03-14T12:27:03;8.20;;;2.10;;
77449;SDS011;66536;53.150;18.172;2023-03-14T12:29:32;4.50;;;2.60;;
77449;SDS011;66536;53.150;18.172;2023-03-14T12:32:27;7.80;;;4.30;;
77449;SDS011;66536;53.150;18.172;2023-03-14T12:35:06;6.40;;;2.20;;
77449;SDS011;66536;53.150;18.172;2023-03-14T12:37:54;7.80;;;2.40;;
77449;SDS011;66536;53.150;18.172;2023-03-14T12:40:30;8.40;;;3.60;;
77449;SDS011;66536;53.150;18.172;2023-03-14T12:43:29;10.40;;;5.50;;
77449;SDS011;66536;53.150;18.172;2023-03-14T12:48:56;9.30;;;3.10;;
77449;SDS011;66536;53.150;18.172;2023-03-14T12:51:38;8.30;;;3.40;;
77449;SDS011;66536;53.150;18.172;2023-03-14T12:54:20;6.70;;;3.00;;
77449;SDS011;66536;53.150;18.172;2023-03-14T12:56:59;8.30;;;2.90;;
77449;SDS011;66536;53.150;18.172;2023-03-14T12:59:50;5.50;;;1.90;;
77449;SDS011;66536;53.150;18.172;2023-03-14T13:02:23;8.30;;;3.50;;
77449;SDS011;66536;53.150;18.172;2023-03-14T13:08:03;11.10;;;6.30;;
77449;SDS011;66536;53.150;18.172;2023-03-14T13:13:22;5.10;;;2.30;;
77449;SDS011;66536;53.150;18.172;2023-03-14T13:15:57;5.60;;;2.70;;
77449;SDS011;66536;53.150;18.172;2023-03-14T13:18:49;5.80;;;3.00;;
77449;SDS011;66536;53.150;18.172;2023-03-14T13:21:25;4.50;;;2.80;;
77449;SDS011;66536;53.150;18.172;2023-03-14T13:24:06;4.40;;;2.50;;
77449;SDS011;66536;53.150;18.172;2023-03-14T13:26:45;4.50;;;2.30;;
77449;SDS011;66536;53.150;18.172;2023-03-14T13:29:15;6.50;;;2.60;;
77449;SDS011;66536;53.150;18.172;2023-03-14T13:31:46;5.50;;;2.40;;
77449;SDS011;66536;53.150;18.172;2023-03-14T13:34:14;8.10;;;3.40;;
77449;SDS011;66536;53.150;18.172;2023-03-14T13:37:49;6.70;;;2.30;;
77449;SDS011;66536;53.150;18.172;2023-03-14T13:40:43;4.80;;;1.80;;
77449;SDS011;66536;53.150;18.172;2023-03-14T13:43:35;5.10;;;2.40;;
77449;SDS011;66536;53.150;18.172;2023-03-14T13:46:39;4.20;;;1.80;;
77449;SDS011;66536;53.150;18.172;2023-03-14T13:49:11;8.60;;;3.20;;
77449;SDS011;66536;53.150;18.172;2023-03-14T13:51:50;5.30;;;2.20;;
77449;SDS011;66536;53.150;18.172;2023-03-14T13:54:54;8.60;;;3.40;;
77449;SDS011;66536;53.150;18.172;2023-03-14T14:00:17;24.30;;;10.50;;
77449;SDS011;66536;53.150;18.172;2023-03-14T14:03:00;14.60;;;6.70;;
77449;SDS011;66536;53.150;18.172;2023-03-14T14:05:27;8.10;;;3.30;;
77449;SDS011;66536;53.150;18.172;2023-03-14T14:07:59;7.60;;;4.80;;
77449;SDS011;66536;53.150;18.172;2023-03-14T14:10:49;6.80;;;3.90;;
77449;SDS011;66536;53.150;18.172;2023-03-14T14:13:54;6.90;;;4.10;;
77449;SDS011;66536;53.150;18.172;2023-03-14T14:17:06;6.70;;;3.70;;
77449;SDS011;66536;53.150;18.172;2023-03-14T14:23:27;8.20;;;3.60;;
77449;SDS011;66536;53.150;18.172;2023-03-14T14:26:27;10.80;;;4.50;;
77449;SDS011;66536;53.150;18.172;2023-03-14T14:29:03;8.00;;;4.20;;
77449;SDS011;66536;53.150;18.172;2023-03-14T14:31:31;13.10;;;5.30;;
77449;SDS011;66536;53.150;18.172;2023-03-14T14:33:58;7.60;;;3.30;;
77449;SDS011;66536;53.150;18.172;2023-03-14T14:36:47;14.50;;;5.60;;
77449;SDS011;66536;53.150;18.172;2023-03-14T14:39:34;34.80;;;15.30;;
77449;SDS011;66536;53.150;18.172;2023-03-14T14:42:04;9.80;;;4.90;;
77449;SDS011;66536;53.150;18.172;2023-03-14T14:45:55;14.00;;;7.10;;
77449;SDS011;66536;53.150;18.172;2023-03-14T14:48:35;11.50;;;7.80;;
77449;SDS011;66536;53.150;18.172;2023-03-14T14:52:31;14.20;;;6.20;;
77449;SDS011;66536;53.150;18.172;2023-03-14T14:54:58;17.10;;;6.40;;
77449;SDS011;66536;53.150;18.172;2023-03-14T15:11:55;6.20;;;2.20;;
77449;SDS011;66536;53.150;18.172;2023-03-14T15:14:39;8.40;;;2.10;;
77449;SDS011;66536;53.150;18.172;2023-03-14T15:18:30;4.30;;;2.30;;
77449;SDS011;66536;53.150;18.172;2023-03-14T15:20:37;6.80;;;2.50;;
77449;SDS011;66536;53.150;18.172;2023-03-14T15:23:33;5.90;;;1.90;;
77449;SDS011;66536;53.150;18.172;2023-03-14T15:26:24;6.20;;;1.90;;
77449;SDS011;66536;53.150;18.172;2023-03-14T15:29:13;6.60;;;3.50;;
77449;SDS011;66536;53.150;18.172;2023-03-14T15:31:40;7.50;;;3.50;;
77449;SDS011;66536;53.150;18.172;2023-03-14T15:34:10;6.80;;;3.00;;
77449;SDS011;66536;53.150;18.172;2023-03-14T15:37:10;6.60;;;2.30;;
77449;SDS011;66536;53.150;18.172;2023-03-14T15:39:44;16.50;;;6.70;;
77449;SDS011;66536;53.150;18.172;2023-03-14T15:42:24;20.70;;;7.30;;
77449;SDS011;66536;53.150;18.172;2023-03-14T15:45:06;20.70;;;7.60;;
77449;SDS011;66536;53.150;18.172;2023-03-14T15:47:50;30.40;;;9.40;;
77449;SDS011;66536;53.150;18.172;2023-03-14T15:50:20;42.30;;;12.20;;
77449;SDS011;66536;53.150;18.172;2023-03-14T15:53:11;46.80;;;13.20;;
77449;SDS011;66536;53.150;18.172;2023-03-14T15:55:45;11.00;;;4.70;;
77449;SDS011;66536;53.150;18.172;2023-03-14T15:58:51;6.70;;;4.20;;
77449;SDS011;66536;53.150;18.172;2023-03-14T16:01:30;6.10;;;3.30;;
77449;SDS011;66536;53.150;18.172;2023-03-14T16:04:41;10.10;;;4.70;;
77449;SDS011;66536;53.150;18.172;2023-03-14T16:07:41;15.60;;;6.70;;
77449;SDS011;66536;53.150;18.172;2023-03-14T16:11:04;6.90;;;3.40;;
77449;SDS011;66536;53.150;18.172;2023-03-14T16:13:44;9.30;;;4.30;;
77449;SDS011;66536;53.150;18.172;2023-03-14T16:16:35;8.40;;;3.50;;
77449;SDS011;66536;53.150;18.172;2023-03-14T16:20:25;13.20;;;5.00;;
77449;SDS011;66536;53.150;18.172;2023-03-14T16:23:56;9.30;;;4.00;;
77449;SDS011;66536;53.150;18.172;2023-03-14T16:28:07;8.40;;;3.60;;
77449;SDS011;66536;53.150;18.172;2023-03-14T16:31:37;11.60;;;4.90;;
77449;SDS011;66536;53.150;18.172;2023-03-14T16:35:39;12.50;;;6.30;;
77449;SDS011;66536;53.150;18.172;2023-03-14T16:39:40;13.20;;;6.40;;
77449;SDS011;66536;53.150;18.172;2023-03-14T16:43:02;8.60;;;3.60;;
77449;SDS011;66536;53.150;18.172;2023-03-14T16:45:50;6.50;;;2.90;;
77449;SDS011;66536;53.150;18.172;2023-03-14T16:48:38;12.30;;;3.30;;
77449;SDS011;66536;53.150;18.172;2023-03-14T16:51:45;4.20;;;2.50;;
77449;SDS011;66536;53.150;18.172;2023-03-14T16:55:11;6.60;;;2.60;;
77449;SDS011;66536;53.150;18.172;2023-03-14T16:57:59;10.00;;;3.50;;
77449;SDS011;66536;53.150;18.172;2023-03-14T17:00:56;8.10;;;2.70;;
77449;SDS011;66536;53.150;18.172;2023-03-14T17:03:55;8.40;;;3.60;;
77449;SDS011;66536;53.150;18.172;2023-03-14T17:07:27;8.70;;;3.70;;
77449;SDS011;66536;53.150;18.172;2023-03-14T17:10:20;12.10;;;4.20;;
77449;SDS011;66536;53.150;18.172;2023-03-14T17:13:14;10.90;;;5.60;;
77449;SDS011;66536;53.150;18.172;2023-03-14T17:16:11;8.20;;;3.50;;
77449;SDS011;66536;53.150;18.172;2023-03-14T17:18:50;8.50;;;3.60;;
77449;SDS011;66536;53.150;18.172;2023-03-14T17:22:09;7.40;;;3.30;;
77449;SDS011;66536;53.150;18.172;2023-03-14T17:24:39;7.80;;;3.10;;
77449;SDS011;66536;53.150;18.172;2023-03-14T17:35:01;7.20;;;3.20;;
77449;SDS011;66536;53.150;18.172;2023-03-14T17:38:21;6.80;;;2.90;;
77449;SDS011;66536;53.150;18.172;2023-03-14T17:41:22;5.00;;;2.20;;
77449;SDS011;66536;53.150;18.172;2023-03-14T17:44:28;7.60;;;4.10;;
77449;SDS011;66536;53.150;18.172;2023-03-14T17:47:08;10.70;;;4.60;;
77449;SDS011;66536;53.150;18.172;2023-03-14T17:49:35;10.10;;;4.30;;
77449;SDS011;66536;53.150;18.172;2023-03-14T17:52:04;9.00;;;4.60;;
77449;SDS011;66536;53.150;18.172;2023-03-14T17:54:37;6.50;;;3.80;;
77449;SDS011;66536;53.150;18.172;2023-03-14T17:57:05;6.10;;;2.80;;
77449;SDS011;66536;53.150;18.172;2023-03-14T17:59:31;11.00;;;3.00;;
77449;SDS011;66536;53.150;18.172;2023-03-14T18:01:57;23.30;;;4.40;;
77449;SDS011;66536;53.150;18.172;2023-03-14T18:04:25;6.60;;;3.40;;
77449;SDS011;66536;53.150;18.172;2023-03-14T18:07:12;8.20;;;3.20;;
77449;SDS011;66536;53.150;18.172;2023-03-14T18:09:41;7.60;;;2.70;;
77449;SDS011;66536;53.150;18.172;2023-03-14T18:12:31;10.50;;;3.70;;
77449;SDS011;66536;53.150;18.172;2023-03-14T18:19:02;5.90;;;2.70;;
77449;SDS011;66536;53.150;18.172;2023-03-14T18:22:15;8.70;;;3.00;;
77449;SDS011;66536;53.150;18.172;2023-03-14T18:25:32;9.60;;;3.50;;
77449;SDS011;66536;53.150;18.172;2023-03-14T18:28:37;8.30;;;3.30;;
77449;SDS011;66536;53.150;18.172;2023-03-14T18:31:33;7.70;;;3.20;;
77449;SDS011;66536;53.150;18.172;2023-03-14T18:35:08;5.90;;;2.50;;
77449;SDS011;66536;53.150;18.172;2023-03-14T18:37:36;10.30;;;4.10;;
77449;SDS011;66536;53.150;18.172;2023-03-14T18:40:05;21.00;;;6.90;;
77449;SDS011;66536;53.150;18.172;2023-03-14T18:43:00;40.90;;;11.60;;
77449;SDS011;66536;53.150;18.172;2023-03-14T18:45:35;57.30;;;16.80;;
77449;SDS011;66536;53.150;18.172;2023-03-14T18:48:17;64.10;;;19.00;;
77449;SDS011;66536;53.150;18.172;2023-03-14T19:01:56;12.30;;;6.70;;
77449;SDS011;66536;53.150;18.172;2023-03-14T19:04:23;11.10;;;5.70;;
77449;SDS011;66536;53.150;18.172;2023-03-14T19:06:49;13.10;;;7.70;;
77449;SDS011;66536;53.150;18.172;2023-03-14T19:09:18;12.70;;;8.60;;
77449;SDS011;66536;53.150;18.172;2023-03-14T19:11:44;37.10;;;21.20;;
77449;SDS011;66536;53.150;18.172;2023-03-14T19:14:10;20.00;;;10.60;;
77449;SDS011;66536;53.150;18.172;2023-03-14T19:16:40;50.10;;;26.40;;
77449;SDS011;66536;53.150;18.172;2023-03-14T19:19:07;122.20;;;50.10;;
77449;SDS011;66536;53.150;18.172;2023-03-14T19:21:33;148.10;;;50.70;;
77449;SDS011;66536;53.150;18.172;2023-03-14T19:24:00;51.70;;;24.30;;
77449;SDS011;66536;53.150;18.172;2023-03-14T19:26:29;35.10;;;18.90;;
77449;SDS011;66536;53.150;18.172;2023-03-14T19:28:57;42.30;;;22.80;;
77449;SDS011;66536;53.150;18.172;2023-03-14T19:31:24;31.90;;;16.40;;
77449;SDS011;66536;53.150;18.172;2023-03-14T19:33:50;32.70;;;17.10;;
77449;SDS011;66536;53.150;18.172;2023-03-14T19:36:21;26.70;;;14.70;;
77449;SDS011;66536;53.150;18.172;2023-03-14T19:38:53;35.10;;;15.00;;
77449;SDS011;66536;53.150;18.172;2023-03-14T19:41:20;42.10;;;22.50;;
77449;SDS011;66536;53.150;18.172;2023-03-14T19:43:50;39.70;;;18.10;;
77449;SDS011;66536;53.150;18.172;2023-03-14T19:46:20;24.10;;;10.80;;
77449;SDS011;66536;53.150;18.172;2023-03-14T19:48:48;16.50;;;8.60;;
77449;SDS011;66536;53.150;18.172;2023-03-14T19:51:19;24.50;;;9.80;;
77449;SDS011;66536;53.150;18.172;2023-03-14T19:53:49;20.60;;;8.80;;
77449;SDS011;66536;53.150;18.172;2023-03-14T19:56:18;16.30;;;7.60;;
77449;SDS011;66536;53.150;18.172;2023-03-14T19:58:46;16.40;;;8.00;;